• Join FlightAware (Why Join?)
  • Login
  • US Flag 
12:37PM EST


 

Airport Tracker/Info


-or-


 

Live Flight TrackerFlight Track Log ✈ DAL3643 ✈ 08-Jun-2014 ✈ KCVG - KDFW

Flight Track Log - Related Links

Times and Time Zones

All times are in EDT time to prevent confusion due to time zone crossing. See the DAL3643 flight status page for this flight to view local times or setup timezone preferences in your user account.

Time Position Orientation Groundspeed Altitude Reporting Facility
EDT Latitude Longitude Course Direction KTS MPH feet Rate Location/Type
05:25PM 39.0500 -84.6833 270° West 163 188 1,300  Level Cincinnati TRACON
05:25PM 39.0500 -84.7000 270° West 168 193 1,700 1,680 Climbing Cincinnati TRACON
05:26PM 39.0500 -84.7833 270° West 243 280 3,500 1,980 Climbing Cincinnati TRACON
05:27PM 39.0333 -84.8833 258° West 277 319 5,700 2,400 Climbing Cincinnati TRACON
05:28PM 38.9667 -84.9167 201° Southwest 322 371 8,300 2,580 Climbing Cincinnati TRACON
05:30PM 38.8833 -84.8747 159° South 311 358 11,100 1,740 Climbing Indianapolis Center
05:31PM 38.7928 -84.8950 190° South 320 368 12,000 1,380 Climbing Indianapolis Center
05:32PM 38.6933 -84.9228 192° South 352 405 14,000 1,800 Climbing Indianapolis Center
05:33PM 38.5981 -84.9786 205° Southwest 363 418 15,800 1,800 Climbing Indianapolis Center
05:34PM 38.5128 -85.0556 215° Southwest 367 422 17,800 1,800 Climbing Indianapolis Center
05:35PM 38.4283 -85.1317 215° Southwest 369 425 19,600 1,800 Climbing Indianapolis Center
05:36PM 38.3364 -85.2153 216° Southwest 374 430 21,600 1,560 Climbing Indianapolis Center
05:37PM 38.2483 -85.2928 215° Southwest 376 433 22,900 1,020 Climbing Indianapolis Center
05:38PM 38.1567 -85.3747 215° Southwest 391 450 23,800 960 Climbing Indianapolis Center
05:39PM 38.0622 -85.4592 215° Southwest 405 466 24,900 1,080 Climbing Indianapolis Center
05:40PM 37.9667 -85.5436 215° Southwest 409 471 26,100 1,200 Climbing Indianapolis Center
05:41PM 37.8706 -85.6281 215° Southwest 415 478 27,400 1,260 Climbing Indianapolis Center
05:42PM 37.7553 -85.7289 215° Southwest 415 478 28,800 1,200 Climbing Indianapolis Center
05:43PM 37.6589 -85.8142 215° Southwest 415 478 30,000 1,140 Climbing Indianapolis Center
05:44PM 37.5619 -85.8981 214° Southwest 416 479 31,200 960 Climbing Indianapolis Center
05:45PM 37.4706 -85.9769 214° Southwest 416 479 32,000 360 Climbing Indianapolis Center
05:46PM 37.3736 -86.0611 215° Southwest 416 479 32,000  Level Indianapolis Center
05:47PM 37.2761 -86.1447 214° Southwest 416 479 32,000  Level Indianapolis Center
05:48PM 37.1778 -86.2319 215° Southwest 424 488 32,000  Level Memphis Center
05:49PM 37.0778 -86.3181 214° Southwest 428 493 32,000  Level Memphis Center
05:50PM 36.9789 -86.4067 216° Southwest 431 496 32,000 240 Level Memphis Center
05:51PM 36.9172 -86.5369 239° Southwest 434 499 32,500 720 Climbing Memphis Center
05:52PM 36.8914 -86.6817 257° West 430 495 33,500 720 Climbing Memphis Center
05:53PM 36.8642 -86.8506 259° West 428 493 34,000 240 Climbing Memphis Center
05:54PM 36.8394 -86.9961 258° West 428 493 34,000  Level Memphis Center
05:55PM 36.8147 -87.1436 258° West 428 493 34,000  Level Memphis Center
05:56PM 36.7914 -87.2869 259° West 426 490 34,000 120 Level Memphis Center
05:57PM 36.7675 -87.4250 258° West 412 474 34,300 480 Climbing Memphis Center
05:58PM 36.7453 -87.5617 259° West 405 466 35,000 300 Climbing Memphis Center
05:59PM 36.7206 -87.7031 258° West 409 471 35,000  Level Memphis Center
06:00PM 36.6664 -87.8589 247° West 415 478 35,000  Level Memphis Center
06:01PM 36.6089 -87.9906 241° Southwest 424 488 35,000 180 Level Memphis Center
06:02PM 36.5483 -88.1286 241° Southwest 425 489 35,400 480 Climbing Memphis Center
06:03PM 36.4931 -88.2578 242° Southwest 425 489 36,000 240 Climbing Memphis Center
06:04PM 36.4361 -88.3883 242° Southwest 425 489 36,000  Level Memphis Center
06:06PM 36.3789 -88.5161 241° Southwest 425 489 36,000  Level Memphis Center
06:07PM 36.3233 -88.6428 241° Southwest 422 486 36,000  Level Memphis Center
06:08PM 36.2669 -88.7706 241° Southwest 422 486 36,000  Level Memphis Center
06:09PM 36.2100 -88.8986 241° Southwest 422 486 36,000  Level Memphis Center
06:10PM 36.1508 -89.0275 240° Southwest 422 486 36,000  Level Memphis Center
06:11PM 36.0806 -89.1850 241° Southwest 426 490 36,000  Level Memphis Center
06:12PM 36.0228 -89.3161 241° Southwest 427 491 36,000  Level Memphis Center
06:13PM 35.9644 -89.4456 241° Southwest 427 491 36,000  Level Memphis Center
06:14PM 35.9053 -89.5758 241° Southwest 427 491 36,000  Level Memphis Center
06:15PM 35.8475 -89.7044 241° Southwest 428 493 36,000  Level Memphis Center
06:16PM 35.7897 -89.8333 241° Southwest 428 493 36,000  Level Memphis Center
06:17PM 35.7308 -89.9594 240° Southwest 428 493 36,000  Level Memphis Center
06:18PM 35.6667 -90.1008 241° Southwest 427 491 36,000  Level Memphis Center
06:19PM 35.6092 -90.2244 240° Southwest 423 487 36,000  Level Memphis Center
06:20PM 35.5514 -90.3486 240° Southwest 423 487 36,000  Level Memphis Center
06:21PM 35.4936 -90.4733 240° Southwest 423 487 36,000  Level Memphis Center
06:22PM 35.4244 -90.6211 240° Southwest 422 486 36,000  Level Memphis Center
06:23PM 35.3658 -90.7444 240° Southwest 422 486 36,000  Level Memphis Center
06:24PM 35.3094 -90.8678 241° Southwest 422 486 36,000  Level Memphis Center
06:25PM 35.2514 -90.9906 240° Southwest 420 483 36,000  Level Memphis Center
06:26PM 35.1894 -91.1208 240° Southwest 420 483 36,000  Level Memphis Center
06:27PM 35.1350 -91.2361 240° Southwest 420 483 36,000  Level Memphis Center
06:28PM 35.0636 -91.3831 239° Southwest 420 483 36,000  Level Memphis Center
06:29PM 35.0114 -91.4903 239° Southwest 420 483 36,000  Level Memphis Center
06:30PM 34.9514 -91.6131 239° Southwest 420 483 36,000  Level Memphis Center
06:31PM 34.8803 -91.7600 239° Southwest 420 483 36,000  Level Memphis Center
06:32PM 34.8225 -91.8825 240° Southwest 420 483 36,000  Level Memphis Center
06:33PM 34.7619 -92.0069 239° Southwest 420 483 36,000  Level Memphis Center
06:34PM 34.7014 -92.1297 239° Southwest 421 484 36,000  Level Memphis Center
06:35PM 34.6542 -92.2611 246° West 422 486 36,000  Level Memphis Center
06:36PM 34.6200 -92.3989 253° West 423 487 36,000  Level Memphis Center
06:37PM 34.5844 -92.5339 252° West 423 487 36,000  Level Memphis Center
06:39PM 34.5408 -92.6961 252° West 421 484 36,000  Level Memphis Center
06:40PM 34.5058 -92.8325 253° West 421 484 36,000  Level Memphis Center
06:41PM 34.4694 -92.9667 252° West 421 484 36,000  Level Memphis Center
06:42PM 34.4331 -93.1017 252° West 421 484 36,000  Level Memphis Center
06:43PM 34.3964 -93.2339 251° West 420 483 36,000  Level Memphis Center
06:44PM 34.3606 -93.3675 252° West 417 480 36,000  Level Memphis Center
06:45PM 34.3236 -93.5014 252° West 418 481 36,000  Level Memphis Center
06:46PM 34.2850 -93.6500 253° West 417 480 36,000  Level Memphis Center
06:47PM 34.2475 -93.7817 251° West 417 480 36,000  Level Memphis Center
06:48PM 34.2114 -93.9119 252° West 417 480 36,000  Level Memphis Center
06:49PM 34.1742 -94.0436 251° West 417 480 36,000  Level Memphis Center
06:50PM 34.1306 -94.2033 252° West 417 480 36,000  Level Memphis Center
06:51PM 34.0789 -94.3286 244° Southwest 418 481 36,000  Level Memphis Center
06:52PM 34.0233 -94.4528 242° Southwest 421 484 36,000  Level Memphis Center
06:53PM 33.9697 -94.5792 243° Southwest 422 486 36,000 -900 Level Memphis Center
06:54PM 33.8994 -94.7622 245° Southwest 436 502 34,000 -1,680 Descending Fort Worth Center
06:55PM 33.8617 -94.8961 251° West 429 494 32,200 -1,800 Descending Fort Worth Center
06:56PM 33.8308 -95.0286 254° West 416 479 30,300 -1,800 Descending Fort Worth Center
06:57PM 33.7981 -95.1619 254° West 418 481 28,500 -1,800 Descending Fort Worth Center
06:58PM 33.7675 -95.2914 254° West 409 471 26,700 -1,980 Descending Fort Worth Center
06:59PM 33.7283 -95.4558 254° West 429 494 24,500 -1,980 Descending Fort Worth Center
07:00PM 33.6939 -95.5911 253° West 429 494 22,700 -1,800 Descending Fort Worth Center
07:01PM 33.6614 -95.7331 255° West 412 474 20,800 -1,800 Descending Fort Worth Center
07:03PM 33.6303 -95.8619 254° West 406 467 19,000 -1,800 Descending Fort Worth Center
07:04PM 33.5978 -95.9936 254° West 401 461 17,100 -1,920 Descending Fort Worth Center
07:05PM 33.5650 -96.1253 253° West 387 445 15,100 -1,860 Descending Fort Worth Center
07:06PM 33.5283 -96.2436 250° West 384 442 13,300 -1,740 Descending Fort Worth Center
07:07PM 33.4547 -96.3319 225° Southwest 347 399 11,600 -1,140 Descending Fort Worth Center
07:08PM 33.3967 -96.4014 225° Southwest 294 338 11,000 -420 Descending Fort Worth Center
07:09PM 33.3453 -96.4669 227° Southwest 274 315 10,800 -900 Descending Fort Worth Center
07:10PM 33.3097 -96.5514 243° Southwest 265 305 9,200 -1,800 Descending Fort Worth Center
07:11PM 33.2781 -96.6308 245° Southwest 264 304 7,200 -1,980 Descending Fort Worth Center
07:12PM 33.2453 -96.7189 246° West 268 308 5,200 -1,080 Descending Fort Worth Center
07:13PM 33.1994 -96.7858 231° Southwest 264 304 5,000 -120 Descending Fort Worth Center
07:14PM 33.1494 -96.8544 229° Southwest 260 299 5,000 -780 Level Fort Worth Center
07:15PM 33.1058 -96.9225 233° Southwest 260 299 3,400 -1,020 Descending Fort Worth Center
07:16PM 33.0600 -96.9911 231° Southwest 245 282 2,900 -480 Descending Fort Worth Center
07:17PM 33.0169 -97.0258 214° Southwest 194 223 2,500 -600 Descending Fort Worth Center
07:18PM 32.9681 -97.0258 180° South 161 185 1,700 -840 Descending Fort Worth Center
07:19PM 32.9283 -97.0264 181° South 147 169 900 -780 Descending Fort Worth Center
07:21PM 32.8968 -97.0380 210° Southwest  Level Estimated
07:28PM 32.8968 -97.0380 North  Level Estimated
07:29PM 32.8968 -97.0380 210° Southwest  Level Estimated